sensor_id;sensor_type;location;lat;lon;timestamp;temperature;humidity
19224;DHT22;9746;47.180;9.776;2024-03-07T07:00:15;2.00;99.90
19224;DHT22;9746;47.180;9.776;2024-03-07T07:02:46;1.90;99.90
19224;DHT22;9746;47.180;9.776;2024-03-07T07:05:15;1.90;99.90
19224;DHT22;9746;47.180;9.776;2024-03-07T07:07:44;2.00;99.90
19224;DHT22;9746;47.180;9.776;2024-03-07T07:10:26;2.00;99.90
19224;DHT22;9746;47.180;9.776;2024-03-07T07:12:53;2.00;99.90
19224;DHT22;9746;47.180;9.776;2024-03-07T07:15:35;2.00;99.90
19224;DHT22;9746;47.180;9.776;2024-03-07T07:18:03;2.00;99.90
19224;DHT22;9746;47.180;9.776;2024-03-07T07:20:35;2.00;99.90
19224;DHT22;9746;47.180;9.776;2024-03-07T07:23:02;2.00;99.90
19224;DHT22;9746;47.180;9.776;2024-03-07T07:25:37;1.90;99.90
19224;DHT22;9746;47.180;9.776;2024-03-07T07:28:06;1.90;99.90
19224;DHT22;9746;47.180;9.776;2024-03-07T07:30:41;1.90;99.90
19224;DHT22;9746;47.180;9.776;2024-03-07T07:33:08;1.90;99.90
19224;DHT22;9746;47.180;9.776;2024-03-07T07:35:37;1.90;99.90
19224;DHT22;9746;47.180;9.776;2024-03-07T07:38:05;1.90;99.90
19224;DHT22;9746;47.180;9.776;2024-03-07T07:40:40;2.00;99.90
19224;DHT22;9746;47.180;9.776;2024-03-07T07:43:07;2.00;99.90
19224;DHT22;9746;47.180;9.776;2024-03-07T07:45:46;2.00;99.90
19224;DHT22;9746;47.180;9.776;2024-03-07T07:48:13;2.00;99.90
19224;DHT22;9746;47.180;9.776;2024-03-07T07:50:55;2.10;99.90
19224;DHT22;9746;47.180;9.776;2024-03-07T07:53:23;2.10;99.90
19224;DHT22;9746;47.180;9.776;2024-03-07T07:55:50;2.10;99.90
19224;DHT22;9746;47.180;9.776;2024-03-07T07:58:17;2.10;99.90
19224;DHT22;9746;47.180;9.776;2024-03-07T08:00:49;2.20;99.90
19224;DHT22;9746;47.180;9.776;2024-03-07T08:03:17;2.30;99.90
19224;DHT22;9746;47.180;9.776;2024-03-07T08:06:12;2.50;99.90
19224;DHT22;9746;47.180;9.776;2024-03-07T08:08:39;2.60;99.90
19224;DHT22;9746;47.180;9.776;2024-03-07T08:11:18;2.80;99.90
19224;DHT22;9746;47.180;9.776;2024-03-07T08:13:46;3.00;99.90
19224;DHT22;9746;47.180;9.776;2024-03-07T08:16:27;3.20;99.90
19224;DHT22;9746;47.180;9.776;2024-03-07T08:18:54;3.50;99.90
19224;DHT22;9746;47.180;9.776;2024-03-07T08:24:26;4.10;99.90
19224;DHT22;9746;47.180;9.776;2024-03-07T08:26:54;4.40;99.90
19224;DHT22;9746;47.180;9.776;2024-03-07T08:29:22;4.50;99.90
19224;DHT22;9746;47.180;9.776;2024-03-07T08:32:01;4.60;99.90
19224;DHT22;9746;47.180;9.776;2024-03-07T08:34:28;4.70;99.90
19224;DHT22;9746;47.180;9.776;2024-03-07T08:37:02;4.80;99.90
19224;DHT22;9746;47.180;9.776;2024-03-07T08:39:34;5.00;99.90
19224;DHT22;9746;47.180;9.776;2024-03-07T08:42:01;5.20;99.90
19224;DHT22;9746;47.180;9.776;2024-03-07T08:44:29;5.30;99.90
19224;DHT22;9746;47.180;9.776;2024-03-07T08:47:07;5.40;99.90
19224;DHT22;9746;47.180;9.776;2024-03-07T08:52:34;5.90;99.90
19224;DHT22;9746;47.180;9.776;2024-03-07T08:55:04;6.30;99.90
19224;DHT22;9746;47.180;9.776;2024-03-07T08:57:31;6.50;99.90
19224;DHT22;9746;47.180;9.776;2024-03-07T08:59:59;6.80;99.90
19224;DHT22;9746;47.180;9.776;2024-03-07T09:02:30;7.10;99.90
19224;DHT22;9746;47.180;9.776;2024-03-07T09:05:30;7.40;99.90
19224;DHT22;9746;47.180;9.776;2024-03-07T09:07:59;7.60;99.90
19224;DHT22;9746;47.180;9.776;2024-03-07T09:10:42;7.80;99.90
19224;DHT22;9746;47.180;9.776;2024-03-07T09:13:10;8.00;99.90
19224;DHT22;9746;47.180;9.776;2024-03-07T09:15:52;8.20;99.90
19224;DHT22;9746;47.180;9.776;2024-03-07T09:18:20;8.50;99.90
19224;DHT22;9746;47.180;9.776;2024-03-07T09:20:51;8.70;99.90
19224;DHT22;9746;47.180;9.776;2024-03-07T09:23:18;8.90;99.90
19224;DHT22;9746;47.180;9.776;2024-03-07T09:26:06;9.10;99.90
19224;DHT22;9746;47.180;9.776;2024-03-07T09:28:34;9.30;99.90
19224;DHT22;9746;47.180;9.776;2024-03-07T09:31:10;9.50;99.90
19224;DHT22;9746;47.180;9.776;2024-03-07T09:33:41;9.70;99.90
19224;DHT22;9746;47.180;9.776;2024-03-07T09:36:14;9.90;99.90
19224;DHT22;9746;47.180;9.776;2024-03-07T09:38:45;10.20;99.90
19224;DHT22;9746;47.180;9.776;2024-03-07T09:41:18;10.40;99.90
19224;DHT22;9746;47.180;9.776;2024-03-07T09:43:48;10.70;99.90
19224;DHT22;9746;47.180;9.776;2024-03-07T09:46:21;10.90;99.90
19224;DHT22;9746;47.180;9.776;2024-03-07T09:48:51;10.90;99.90
19224;DHT22;9746;47.180;9.776;2024-03-07T09:51:26;11.10;99.90
19224;DHT22;9746;47.180;9.776;2024-03-07T09:53:56;11.40;99.90
19224;DHT22;9746;47.180;9.776;2024-03-07T09:56:34;11.70;99.90
19224;DHT22;9746;47.180;9.776;2024-03-07T09:59:04;11.90;99.90
19224;DHT22;9746;47.180;9.776;2024-03-07T10:01:34;12.00;99.90
19224;DHT22;9746;47.180;9.776;2024-03-07T10:04:06;12.40;99.90
19224;DHT22;9746;47.180;9.776;2024-03-07T10:06:37;12.80;99.90
19224;DHT22;9746;47.180;9.776;2024-03-07T10:09:06;13.10;99.90
19224;DHT22;9746;47.180;9.776;2024-03-07T10:12:06;13.20;99.90
19224;DHT22;9746;47.180;9.776;2024-03-07T10:14:35;13.30;99.90
19224;DHT22;9746;47.180;9.776;2024-03-07T10:17:05;13.40;99.90
19224;DHT22;9746;47.180;9.776;2024-03-07T10:19:35;13.50;99.90
19224;DHT22;9746;47.180;9.776;2024-03-07T10:22:09;13.60;99.90
19224;DHT22;9746;47.180;9.776;2024-03-07T10:24:36;13.90;99.90
19224;DHT22;9746;47.180;9.776;2024-03-07T10:27:06;14.20;99.90
19224;DHT22;9746;47.180;9.776;2024-03-07T10:29:35;14.30;99.90
19224;DHT22;9746;47.180;9.776;2024-03-07T10:32:11;14.40;99.90
19224;DHT22;9746;47.180;9.776;2024-03-07T10:34:41;14.40;99.90
19224;DHT22;9746;47.180;9.776;2024-03-07T10:37:15;14.60;99.90
19224;DHT22;9746;47.180;9.776;2024-03-07T10:39:44;14.80;99.90
19224;DHT22;9746;47.180;9.776;2024-03-07T10:42:15;15.20;99.90
19224;DHT22;9746;47.180;9.776;2024-03-07T10:44:44;15.50;99.90
19224;DHT22;9746;47.180;9.776;2024-03-07T10:47:20;15.40;99.90
19224;DHT22;9746;47.180;9.776;2024-03-07T10:49:57;15.60;99.90
19224;DHT22;9746;47.180;9.776;2024-03-07T10:52:40;15.70;99.90
19224;DHT22;9746;47.180;9.776;2024-03-07T10:55:18;15.70;99.90
19224;DHT22;9746;47.180;9.776;2024-03-07T10:57:52;15.60;99.90
19224;DHT22;9746;47.180;9.776;2024-03-07T11:00:26;15.90;99.90
19224;DHT22;9746;47.180;9.776;2024-03-07T11:03:01;16.20;99.90
19224;DHT22;9746;47.180;9.776;2024-03-07T11:05:34;16.50;99.90
19224;DHT22;9746;47.180;9.776;2024-03-07T11:08:02;16.50;99.90
19224;DHT22;9746;47.180;9.776;2024-03-07T11:10:35;16.70;99.90
19224;DHT22;9746;47.180;9.776;2024-03-07T11:13:04;16.90;99.90
19224;DHT22;9746;47.180;9.776;2024-03-07T11:15:34;16.90;99.90
19224;DHT22;9746;47.180;9.776;2024-03-07T11:18:02;16.80;99.90
19224;DHT22;9746;47.180;9.776;2024-03-07T11:20:36;16.90;99.90
19224;DHT22;9746;47.180;9.776;2024-03-07T11:23:25;16.90;99.90
19224;DHT22;9746;47.180;9.776;2024-03-07T11:26:07;17.10;99.90
19224;DHT22;9746;47.180;9.776;2024-03-07T11:28:36;17.50;99.90
19224;DHT22;9746;47.180;9.776;2024-03-07T11:31:12;17.40;99.90
19224;DHT22;9746;47.180;9.776;2024-03-07T11:33:39;17.30;99.90
19224;DHT22;9746;47.180;9.776;2024-03-07T11:36:42;17.40;99.90
19224;DHT22;9746;47.180;9.776;2024-03-07T11:39:40;17.40;99.90
19224;DHT22;9746;47.180;9.776;2024-03-07T11:42:08;17.20;99.90
19224;DHT22;9746;47.180;9.776;2024-03-07T11:44:36;17.40;99.90
19224;DHT22;9746;47.180;9.776;2024-03-07T11:47:08;17.30;99.90
19224;DHT22;9746;47.180;9.776;2024-03-07T11:49:37;16.50;99.90
19224;DHT22;9746;47.180;9.776;2024-03-07T11:52:08;16.70;99.90
19224;DHT22;9746;47.180;9.776;2024-03-07T11:54:38;16.80;99.90
19224;DHT22;9746;47.180;9.776;2024-03-07T11:57:28;17.20;99.90
19224;DHT22;9746;47.180;9.776;2024-03-07T11:59:59;17.90;99.90
19224;DHT22;9746;47.180;9.776;2024-03-07T12:02:42;18.20;99.90
19224;DHT22;9746;47.180;9.776;2024-03-07T12:05:11;18.50;99.90
19224;DHT22;9746;47.180;9.776;2024-03-07T12:07:49;18.50;99.90
19224;DHT22;9746;47.180;9.776;2024-03-07T12:10:16;18.00;99.90
19224;DHT22;9746;47.180;9.776;2024-03-07T12:12:53;17.80;99.90
19224;DHT22;9746;47.180;9.776;2024-03-07T12:15:23;18.40;99.90
19224;DHT22;9746;47.180;9.776;2024-03-07T12:18:01;18.80;99.90
19224;DHT22;9746;47.180;9.776;2024-03-07T12:20:36;18.40;99.90
19224;DHT22;9746;47.180;9.776;2024-03-07T12:23:06;18.30;99.90
19224;DHT22;9746;47.180;9.776;2024-03-07T12:25:35;19.30;99.90
19224;DHT22;9746;47.180;9.776;2024-03-07T12:28:12;20.20;99.90
19224;DHT22;9746;47.180;9.776;2024-03-07T12:30:50;20.30;99.90
19224;DHT22;9746;47.180;9.776;2024-03-07T12:33:31;20.70;99.90
19224;DHT22;9746;47.180;9.776;2024-03-07T12:36:07;20.70;99.90
19224;DHT22;9746;47.180;9.776;2024-03-07T12:38:38;21.10;99.90
19224;DHT22;9746;47.180;9.776;2024-03-07T12:41:09;21.40;99.90
19224;DHT22;9746;47.180;9.776;2024-03-07T12:43:40;20.70;99.90
19224;DHT22;9746;47.180;9.776;2024-03-07T12:46:10;20.80;99.90
19224;DHT22;9746;47.180;9.776;2024-03-07T12:48:39;20.80;99.90
19224;DHT22;9746;47.180;9.776;2024-03-07T12:51:07;21.90;99.90
19224;DHT22;9746;47.180;9.776;2024-03-07T12:53:37;22.10;99.90
19224;DHT22;9746;47.180;9.776;2024-03-07T12:56:05;21.70;99.90
19224;DHT22;9746;47.180;9.776;2024-03-07T12:58:34;21.90;99.90
19224;DHT22;9746;47.180;9.776;2024-03-07T13:01:02;21.40;99.90
19224;DHT22;9746;47.180;9.776;2024-03-07T13:04:00;21.00;99.90
19224;DHT22;9746;47.180;9.776;2024-03-07T13:06:42;21.50;99.90
19224;DHT22;9746;47.180;9.776;2024-03-07T13:09:14;21.80;99.90
19224;DHT22;9746;47.180;9.776;2024-03-07T13:11:55;22.30;99.90
19224;DHT22;9746;47.180;9.776;2024-03-07T13:14:22;22.70;99.60
19224;DHT22;9746;47.180;9.776;2024-03-07T13:17:10;23.40;98.80
19224;DHT22;9746;47.180;9.776;2024-03-07T13:19:39;23.50;97.50
19224;DHT22;9746;47.180;9.776;2024-03-07T13:22:14;22.30;97.10
19224;DHT22;9746;47.180;9.776;2024-03-07T13:24:43;22.00;97.30
19224;DHT22;9746;47.180;9.776;2024-03-07T13:27:13;22.50;98.00
19224;DHT22;9746;47.180;9.776;2024-03-07T13:29:45;21.90;97.10
19224;DHT22;9746;47.180;9.776;2024-03-07T13:32:19;22.00;97.60
19224;DHT22;9746;47.180;9.776;2024-03-07T13:34:46;22.40;97.80
19224;DHT22;9746;47.180;9.776;2024-03-07T13:37:25;22.50;98.00
19224;DHT22;9746;47.180;9.776;2024-03-07T13:39:53;23.20;96.90
19224;DHT22;9746;47.180;9.776;2024-03-07T13:42:31;23.60;96.00
19224;DHT22;9746;47.180;9.776;2024-03-07T13:44:59;22.70;95.60
19224;DHT22;9746;47.180;9.776;2024-03-07T13:47:26;21.70;96.20
19224;DHT22;9746;47.180;9.776;2024-03-07T13:49:54;21.60;97.00
19224;DHT22;9746;47.180;9.776;2024-03-07T13:52:40;21.90;96.10
19224;DHT22;9746;47.180;9.776;2024-03-07T13:55:21;22.50;96.60
19224;DHT22;9746;47.180;9.776;2024-03-07T13:57:58;23.20;95.90
19224;DHT22;9746;47.180;9.776;2024-03-07T14:00:38;23.20;95.50
19224;DHT22;9746;47.180;9.776;2024-03-07T14:06:21;23.50;94.50
19224;DHT22;9746;47.180;9.776;2024-03-07T14:12:37;23.40;94.50
19224;DHT22;9746;47.180;9.776;2024-03-07T14:15:47;22.70;94.80
19224;DHT22;9746;47.180;9.776;2024-03-07T14:19:14;22.70;94.90
19224;DHT22;9746;47.180;9.776;2024-03-07T14:22:05;23.00;94.30
19224;DHT22;9746;47.180;9.776;2024-03-07T14:25:12;23.10;93.90
19224;DHT22;9746;47.180;9.776;2024-03-07T14:28:11;22.80;93.60
19224;DHT22;9746;47.180;9.776;2024-03-07T14:30:44;22.30;93.70
19224;DHT22;9746;47.180;9.776;2024-03-07T14:33:28;22.10;94.20
19224;DHT22;9746;47.180;9.776;2024-03-07T14:36:02;22.10;94.40
19224;DHT22;9746;47.180;9.776;2024-03-07T14:41:55;22.10;94.40
19224;DHT22;9746;47.180;9.776;2024-03-07T14:44:26;21.40;94.30
19224;DHT22;9746;47.180;9.776;2024-03-07T14:47:00;21.30;94.60
19224;DHT22;9746;47.180;9.776;2024-03-07T14:49:31;21.40;94.40
19224;DHT22;9746;47.180;9.776;2024-03-07T14:52:02;21.10;94.30
19224;DHT22;9746;47.180;9.776;2024-03-07T14:54:30;19.90;94.60
19224;DHT22;9746;47.180;9.776;2024-03-07T14:56:58;18.70;95.50
19224;DHT22;9746;47.180;9.776;2024-03-07T14:59:27;17.70;96.60
19224;DHT22;9746;47.180;9.776;2024-03-07T15:01:55;17.20;97.40
19224;DHT22;9746;47.180;9.776;2024-03-07T15:04:33;16.60;98.20
19224;DHT22;9746;47.180;9.776;2024-03-07T15:07:00;16.00;98.80
19224;DHT22;9746;47.180;9.776;2024-03-07T15:09:38;15.60;99.60
19224;DHT22;9746;47.180;9.776;2024-03-07T15:12:06;15.10;99.90
19224;DHT22;9746;47.180;9.776;2024-03-07T15:14:36;14.90;99.90
19224;DHT22;9746;47.180;9.776;2024-03-07T15:17:04;14.60;99.90
19224;DHT22;9746;47.180;9.776;2024-03-07T15:19:32;14.00;99.90
19224;DHT22;9746;47.180;9.776;2024-03-07T15:22:00;13.90;99.90
19224;DHT22;9746;47.180;9.776;2024-03-07T15:24:31;13.90;99.90
19224;DHT22;9746;47.180;9.776;2024-03-07T15:27:00;14.00;99.90
19224;DHT22;9746;47.180;9.776;2024-03-07T15:29:42;14.30;99.90
19224;DHT22;9746;47.180;9.776;2024-03-07T15:32:10;14.60;99.90
19224;DHT22;9746;47.180;9.776;2024-03-07T15:34:41;14.80;99.90
19224;DHT22;9746;47.180;9.776;2024-03-07T15:37:09;14.50;99.90
19224;DHT22;9746;47.180;9.776;2024-03-07T15:39:40;14.20;99.90
19224;DHT22;9746;47.180;9.776;2024-03-07T15:42:14;13.70;99.90
19224;DHT22;9746;47.180;9.776;2024-03-07T15:44:43;13.30;99.90
19224;DHT22;9746;47.180;9.776;2024-03-07T15:47:14;13.10;99.90
19224;DHT22;9746;47.180;9.776;2024-03-07T15:49:47;12.90;99.90
19224;DHT22;9746;47.180;9.776;2024-03-07T15:52:15;12.70;99.90
19224;DHT22;9746;47.180;9.776;2024-03-07T15:54:44;12.40;99.90
19224;DHT22;9746;47.180;9.776;2024-03-07T15:57:13;12.20;99.90
19224;DHT22;9746;47.180;9.776;2024-03-07T15:59:45;12.10;99.90
19224;DHT22;9746;47.180;9.776;2024-03-07T16:02:17;11.90;99.90
19224;DHT22;9746;47.180;9.776;2024-03-07T16:04:48;11.70;99.90
19224;DHT22;9746;47.180;9.776;2024-03-07T16:07:23;11.60;99.90
19224;DHT22;9746;47.180;9.776;2024-03-07T16:09:51;11.30;99.90
19224;DHT22;9746;47.180;9.776;2024-03-07T16:12:30;11.10;99.90
19224;DHT22;9746;47.180;9.776;2024-03-07T16:15:00;11.00;99.90
19224;DHT22;9746;47.180;9.776;2024-03-07T16:17:30;11.00;99.90
19224;DHT22;9746;47.180;9.776;2024-03-07T16:19:59;10.90;99.90
19224;DHT22;9746;47.180;9.776;2024-03-07T16:22:32;10.80;99.90
19224;DHT22;9746;47.180;9.776;2024-03-07T16:25:00;10.50;99.90
19224;DHT22;9746;47.180;9.776;2024-03-07T16:27:38;10.30;99.90
19224;DHT22;9746;47.180;9.776;2024-03-07T16:30:11;10.20;99.90
19224;DHT22;9746;47.180;9.776;2024-03-07T16:32:40;10.00;99.90
19224;DHT22;9746;47.180;9.776;2024-03-07T16:35:08;9.90;99.90
19224;DHT22;9746;47.180;9.776;2024-03-07T16:37:45;9.80;99.90
19224;DHT22;9746;47.180;9.776;2024-03-07T16:40:14;9.60;99.90
19224;DHT22;9746;47.180;9.776;2024-03-07T16:42:45;9.50;99.90
19224;DHT22;9746;47.180;9.776;2024-03-07T16:45:20;9.40;99.90
19224;DHT22;9746;47.180;9.776;2024-03-07T16:47:51;9.20;99.90
19224;DHT22;9746;47.180;9.776;2024-03-07T16:50:19;9.10;99.90
19224;DHT22;9746;47.180;9.776;2024-03-07T16:52:49;9.00;99.90
19224;DHT22;9746;47.180;9.776;2024-03-07T16:55:17;8.90;99.90
19224;DHT22;9746;47.180;9.776;2024-03-07T16:57:54;8.70;99.90
19224;DHT22;9746;47.180;9.776;2024-03-07T17:00:25;8.70;99.90
19224;DHT22;9746;47.180;9.776;2024-03-07T17:02:56;8.70;99.90
19224;DHT22;9746;47.180;9.776;2024-03-07T17:05:25;8.70;99.90
19224;DHT22;9746;47.180;9.776;2024-03-07T17:08:03;8.60;99.90
19224;DHT22;9746;47.180;9.776;2024-03-07T17:10:32;8.50;99.90
19224;DHT22;9746;47.180;9.776;2024-03-07T17:13:03;8.50;99.90
19224;DHT22;9746;47.180;9.776;2024-03-07T17:15:34;8.40;99.90
19224;DHT22;9746;47.180;9.776;2024-03-07T17:18:05;8.30;99.90
19224;DHT22;9746;47.180;9.776;2024-03-07T17:20:36;8.40;99.90
19224;DHT22;9746;47.180;9.776;2024-03-07T17:23:05;8.40;99.90
19224;DHT22;9746;47.180;9.776;2024-03-07T17:25:33;8.30;99.90
19224;DHT22;9746;47.180;9.776;2024-03-07T17:28:05;8.30;99.90
19224;DHT22;9746;47.180;9.776;2024-03-07T17:30:34;8.30;99.90
19224;DHT22;9746;47.180;9.776;2024-03-07T17:33:03;8.40;99.90
19224;DHT22;9746;47.180;9.776;2024-03-07T17:35:33;8.40;99.90
19224;DHT22;9746;47.180;9.776;2024-03-07T17:38:06;8.50;99.90
19224;DHT22;9746;47.180;9.776;2024-03-07T17:40:36;8.50;99.90
19224;DHT22;9746;47.180;9.776;2024-03-07T17:43:05;8.50;99.90
19224;DHT22;9746;47.180;9.776;2024-03-07T17:45:36;8.50;99.90
19224;DHT22;9746;47.180;9.776;2024-03-07T17:48:05;8.50;99.90
19224;DHT22;9746;47.180;9.776;2024-03-07T17:50:36;8.50;99.90
19224;DHT22;9746;47.180;9.776;2024-03-07T17:53:09;8.40;99.90
19224;DHT22;9746;47.180;9.776;2024-03-07T17:55:40;8.40;99.90
19224;DHT22;9746;47.180;9.776;2024-03-07T17:58:25;8.40;99.90
19224;DHT22;9746;47.180;9.776;2024-03-07T18:00:54;8.40;99.90
19224;DHT22;9746;47.180;9.776;2024-03-07T18:03:23;8.40;99.90
19224;DHT22;9746;47.180;9.776;2024-03-07T18:05:51;8.30;99.90
19224;DHT22;9746;47.180;9.776;2024-03-07T18:08:20;8.30;99.90
19224;DHT22;9746;47.180;9.776;2024-03-07T18:10:49;8.30;99.90
19224;DHT22;9746;47.180;9.776;2024-03-07T18:13:21;8.30;99.90
19224;DHT22;9746;47.180;9.776;2024-03-07T18:15:49;8.30;99.90
19224;DHT22;9746;47.180;9.776;2024-03-07T18:18:22;8.30;99.90
19224;DHT22;9746;47.180;9.776;2024-03-07T18:20:51;8.30;99.90
19224;DHT22;9746;47.180;9.776;2024-03-07T18:23:22;8.20;99.90
19224;DHT22;9746;47.180;9.776;2024-03-07T18:25:52;8.30;99.90
19224;DHT22;9746;47.180;9.776;2024-03-07T18:28:27;8.20;99.90
19224;DHT22;9746;47.180;9.776;2024-03-07T18:30:55;8.20;99.90
19224;DHT22;9746;47.180;9.776;2024-03-07T18:33:34;8.20;99.90
19224;DHT22;9746;47.180;9.776;2024-03-07T18:36:02;8.20;99.90
19224;DHT22;9746;47.180;9.776;2024-03-07T18:38:40;8.10;99.90
19224;DHT22;9746;47.180;9.776;2024-03-07T18:41:10;8.10;99.90
19224;DHT22;9746;47.180;9.776;2024-03-07T18:43:37;8.10;99.90
19224;DHT22;9746;47.180;9.776;2024-03-07T18:46:06;8.00;99.90
19224;DHT22;9746;47.180;9.776;2024-03-07T18:48:37;8.00;99.90
19224;DHT22;9746;47.180;9.776;2024-03-07T18:51:05;8.00;99.90
19224;DHT22;9746;47.180;9.776;2024-03-07T18:53:36;8.00;99.90
19224;DHT22;9746;47.180;9.776;2024-03-07T18:56:04;8.00;99.90
19224;DHT22;9746;47.180;9.776;2024-03-07T18:58:37;8.00;99.90
19224;DHT22;9746;47.180;9.776;2024-03-07T19:01:05;8.00;99.90
19224;DHT22;9746;47.180;9.776;2024-03-07T19:03:37;8.00;99.90
19224;DHT22;9746;47.180;9.776;2024-03-07T19:06:07;8.00;99.90
19224;DHT22;9746;47.180;9.776;2024-03-07T19:08:50;8.00;99.90
19224;DHT22;9746;47.180;9.776;2024-03-07T19:11:20;7.90;99.90
19224;DHT22;9746;47.180;9.776;2024-03-07T19:13:47;7.90;99.90
19224;DHT22;9746;47.180;9.776;2024-03-07T19:16:18;7.90;99.90
19224;DHT22;9746;47.180;9.776;2024-03-07T19:18:47;7.90;99.90
19224;DHT22;9746;47.180;9.776;2024-03-07T19:21:15;7.90;99.90
19224;DHT22;9746;47.180;9.776;2024-03-07T19:23:43;7.90;99.90
19224;DHT22;9746;47.180;9.776;2024-03-07T19:26:11;7.90;99.90
19224;DHT22;9746;47.180;9.776;2024-03-07T19:28:43;7.90;99.90
19224;DHT22;9746;47.180;9.776;2024-03-07T19:31:13;7.90;99.90
19224;DHT22;9746;47.180;9.776;2024-03-07T19:33:43;7.80;99.90
19224;DHT22;9746;47.180;9.776;2024-03-07T19:36:12;7.80;99.90
19224;DHT22;9746;47.180;9.776;2024-03-07T19:38:42;7.80;99.90
19224;DHT22;9746;47.180;9.776;2024-03-07T19:41:11;7.80;99.90
19224;DHT22;9746;47.180;9.776;2024-03-07T19:43:41;7.80;99.90
19224;DHT22;9746;47.180;9.776;2024-03-07T19:46:10;7.80;99.90
19224;DHT22;9746;47.180;9.776;2024-03-07T19:48:40;7.70;99.90
19224;DHT22;9746;47.180;9.776;2024-03-07T19:51:08;7.60;99.90
19224;DHT22;9746;47.180;9.776;2024-03-07T19:53:48;7.60;99.90
19224;DHT22;9746;47.180;9.776;2024-03-07T19:56:19;7.50;99.90
19224;DHT22;9746;47.180;9.776;2024-03-07T19:58:59;7.40;99.90
19224;DHT22;9746;47.180;9.776;2024-03-07T20:01:27;7.40;99.90
19224;DHT22;9746;47.180;9.776;2024-03-07T20:04:11;7.30;99.90
19224;DHT22;9746;47.180;9.776;2024-03-07T20:06:40;7.30;99.90
19224;DHT22;9746;47.180;9.776;2024-03-07T20:09:35;7.30;99.90
19224;DHT22;9746;47.180;9.776;2024-03-07T20:12:03;7.20;99.90
19224;DHT22;9746;47.180;9.776;2024-03-07T20:14:47;7.10;99.90
19224;DHT22;9746;47.180;9.776;2024-03-07T20:17:15;7.00;99.90
19224;DHT22;9746;47.180;9.776;2024-03-07T20:20:10;6.90;99.90
19224;DHT22;9746;47.180;9.776;2024-03-07T20:22:42;6.80;99.90
19224;DHT22;9746;47.180;9.776;2024-03-07T20:25:13;6.90;99.90
19224;DHT22;9746;47.180;9.776;2024-03-07T20:27:41;6.90;99.90
19224;DHT22;9746;47.180;9.776;2024-03-07T20:30:16;7.00;99.90
19224;DHT22;9746;47.180;9.776;2024-03-07T20:32:45;7.00;99.90
19224;DHT22;9746;47.180;9.776;2024-03-07T20:35:15;7.00;99.90
19224;DHT22;9746;47.180;9.776;2024-03-07T20:37:44;7.00;99.90
19224;DHT22;9746;47.180;9.776;2024-03-07T20:40:17;7.00;99.90
19224;DHT22;9746;47.180;9.776;2024-03-07T20:42:50;7.00;99.90
19224;DHT22;9746;47.180;9.776;2024-03-07T20:45:30;7.00;99.90
19224;DHT22;9746;47.180;9.776;2024-03-07T20:48:01;6.90;99.90
19224;DHT22;9746;47.180;9.776;2024-03-07T20:50:31;6.80;99.90
19224;DHT22;9746;47.180;9.776;2024-03-07T20:53:05;6.70;99.90
19224;DHT22;9746;47.180;9.776;2024-03-07T20:55:38;6.60;99.90
19224;DHT22;9746;47.180;9.776;2024-03-07T20:58:06;6.40;99.90
19224;DHT22;9746;47.180;9.776;2024-03-07T21:00:37;6.30;99.90
19224;DHT22;9746;47.180;9.776;2024-03-07T21:03:10;6.30;99.90
19224;DHT22;9746;47.180;9.776;2024-03-07T21:05:42;6.20;99.90
19224;DHT22;9746;47.180;9.776;2024-03-07T21:08:12;6.10;99.90
19224;DHT22;9746;47.180;9.776;2024-03-07T21:10:44;6.10;99.90
19224;DHT22;9746;47.180;9.776;2024-03-07T21:13:12;6.00;99.90
19224;DHT22;9746;47.180;9.776;2024-03-07T21:15:43;6.00;99.90
19224;DHT22;9746;47.180;9.776;2024-03-07T21:18:11;6.00;99.90
19224;DHT22;9746;47.180;9.776;2024-03-07T21:20:55;5.90;99.90
19224;DHT22;9746;47.180;9.776;2024-03-07T21:23:22;5.90;99.90
19224;DHT22;9746;47.180;9.776;2024-03-07T21:25:58;5.80;99.90
